Time;durP1;ratioP1;P1;durP2;ratioP2;P2;SDS_P1;SDS_P2;PMS_P1;PMS_P2;Temp;Humidity;BMP_temperature;BMP_pressure;BME280_temperature;BME280_humidity;BME280_pressure;Samples;Min_cycle;Max_cycle;Signal;HPM_P1;HPM_P2
2023/05/27 00:01:13;;;;;;;1999.90;999.90;;;10.60;99.90;;;;;;5091985;28;20459;-75
2023/05/27 00:03:40;;;;;;;1999.90;999.90;;;10.70;99.90;;;;;;5089162;28;20934;-74
2023/05/27 00:06:07;;;;;;;1999.90;999.90;;;10.70;99.90;;;;;;5082743;28;20805;-75
2023/05/27 00:08:34;;;;;;;1999.90;999.90;;;10.70;99.90;;;;;;5079322;28;20429;-73
2023/05/27 00:11:01;;;;;;;1999.90;999.90;;;10.60;99.90;;;;;;5089740;28;20441;-75
2023/05/27 00:13:27;;;;;;;1999.90;999.90;;;10.60;99.90;;;;;;5089647;28;20429;-75
2023/05/27 00:15:54;;;;;;;1999.90;999.90;;;10.50;99.90;;;;;;5084790;28;20785;-75
2023/05/27 00:18:21;;;;;;;1999.90;999.90;;;10.40;99.90;;;;;;5090504;28;20422;-74
2023/05/27 00:20:49;;;;;;;1999.90;999.90;;;10.00;99.90;;;;;;5079325;28;20477;-75
2023/05/27 00:23:16;;;;;;;1999.90;999.90;;;9.90;99.90;;;;;;5088428;28;20425;-74
2023/05/27 00:25:42;;;;;;;1999.90;999.90;;;9.90;99.90;;;;;;5087578;28;20454;-75
2023/05/27 00:28:09;;;;;;;1999.90;999.90;;;9.80;99.90;;;;;;5087141;28;20433;-75
2023/05/27 00:30:35;;;;;;;1999.90;999.90;;;9.80;99.90;;;;;;5079935;28;20422;-74
2023/05/27 00:33:02;;;;;;;1999.90;999.90;;;9.50;99.90;;;;;;5090228;28;20502;-74
2023/05/27 00:35:29;;;;;;;1999.90;999.90;;;9.40;99.90;;;;;;5087659;28;20927;-73
2023/05/27 00:37:57;;;;;;;1999.90;999.90;;;9.40;99.90;;;;;;5082197;28;20419;-75
2023/05/27 00:40:27;;;;;;;1999.90;999.90;;;9.30;99.90;;;;;;5085557;28;20426;-74
2023/05/27 00:42:53;;;;;;;1999.90;999.90;;;9.10;99.90;;;;;;5076931;28;20895;-76
2023/05/27 00:45:20;;;;;;;1999.90;999.90;;;9.00;99.90;;;;;;5087604;28;20430;-75
2023/05/27 00:47:47;;;;;;;1999.90;999.90;;;8.90;99.90;;;;;;5089641;28;20444;-74
2023/05/27 00:50:13;;;;;;;1999.90;999.90;;;8.80;99.90;;;;;;5085468;28;20515;-74
2023/05/27 00:52:40;;;;;;;1999.90;999.90;;;8.80;99.90;;;;;;5081688;28;20426;-76
2023/05/27 00:55:10;;;;;;;1999.90;999.90;;;8.80;99.90;;;;;;5082603;28;20425;-75
2023/05/27 00:57:37;;;;;;;1999.90;999.90;;;8.60;99.90;;;;;;5081696;28;20430;-75
2023/05/27 01:00:07;;;;;;;1999.90;999.90;;;8.60;99.90;;;;;;5089347;28;20509;-75
2023/05/27 01:02:34;;;;;;;1999.90;999.90;;;8.50;99.90;;;;;;5084221;28;20434;-74
2023/05/27 01:05:00;;;;;;;1999.90;999.90;;;8.50;99.90;;;;;;5086044;28;20422;-74
2023/05/27 01:07:33;;;;;;;1999.90;999.90;;;8.60;99.90;;;;;;5082223;28;20925;-75
2023/05/27 01:10:08;;;;;;;1999.90;999.90;;;8.40;99.90;;;;;;5090596;28;20422;-73
2023/05/27 01:12:45;;;;;;;1999.90;999.90;;;8.10;99.90;;;;;;5082215;28;20899;-75
2023/05/27 01:15:12;;;;;;;1999.90;999.90;;;8.00;99.90;;;;;;5079983;28;20486;-74
2023/05/27 01:17:42;;;;;;;1999.90;999.90;;;7.80;99.90;;;;;;5086854;28;20830;-74
2023/05/27 01:20:10;;;;;;;1999.90;999.90;;;8.10;99.90;;;;;;5090033;28;20425;-74
2023/05/27 01:22:41;;;;;;;1999.90;999.90;;;8.20;99.90;;;;;;5085679;28;20444;-74
2023/05/27 01:25:08;;;;;;;1999.90;999.90;;;8.30;99.90;;;;;;5081939;28;20856;-74
2023/05/27 01:27:35;;;;;;;1999.90;999.90;;;8.40;99.90;;;;;;5078381;28;20499;-74
2023/05/27 01:30:03;;;;;;;1999.90;999.90;;;8.20;99.90;;;;;;5089172;28;20413;-74
2023/05/27 01:32:39;;;;;;;1999.90;999.90;;;8.20;99.90;;;;;;5085150;28;20426;-73
2023/05/27 01:35:13;;;;;;;1999.90;999.90;;;8.20;99.90;;;;;;5082021;28;20511;-74
2023/05/27 01:37:43;;;;;;;1999.90;999.90;;;8.30;99.90;;;;;;5081955;28;20427;-74
2023/05/27 01:40:12;;;;;;;1999.90;999.90;;;8.40;99.90;;;;;;5078868;28;20958;-74
2023/05/27 01:42:40;;;;;;;1999.90;999.90;;;8.40;99.90;;;;;;5089072;28;20438;-76
2023/05/27 01:45:08;;;;;;;1999.90;999.90;;;8.30;99.90;;;;;;5088643;28;20507;-75
2023/05/27 01:47:36;;;;;;;1999.90;999.90;;;8.40;99.90;;;;;;5083053;28;20418;-75
2023/05/27 01:50:03;;;;;;;1999.90;999.90;;;8.40;99.90;;;;;;5075485;28;20468;-74
2023/05/27 01:52:30;;;;;;;1999.90;999.90;;;8.20;99.90;;;;;;5079199;28;20481;-73
2023/05/27 01:54:58;;;;;;;1999.90;999.90;;;8.10;99.90;;;;;;5089134;28;20429;-75
2023/05/27 01:57:25;;;;;;;1999.90;999.90;;;8.20;99.90;;;;;;5089480;28;20421;-74
2023/05/27 01:59:52;;;;;;;1999.90;999.90;;;8.40;99.90;;;;;;5080015;28;20902;-75
2023/05/27 02:02:19;;;;;;;1999.90;999.90;;;8.50;99.90;;;;;;5073645;28;20509;-72
2023/05/27 02:04:45;;;;;;;1999.90;999.90;;;8.60;99.90;;;;;;5080845;28;20651;-72
2023/05/27 02:07:12;;;;;;;1999.90;999.90;;;8.40;99.90;;;;;;5089134;28;20479;-75
2023/05/27 02:09:39;;;;;;;1999.90;999.90;;;8.30;99.90;;;;;;5083697;28;20463;-74
2023/05/27 02:12:07;;;;;;;1999.90;999.90;;;8.40;99.90;;;;;;5081175;28;20427;-75
2023/05/27 02:14:38;;;;;;;1999.90;999.90;;;8.30;99.90;;;;;;5080357;28;20427;-75
2023/05/27 02:17:05;;;;;;;1999.90;999.90;;;8.30;99.90;;;;;;5087561;28;20504;-76
2023/05/27 02:19:31;;;;;;;1999.90;999.90;;;8.60;99.90;;;;;;5088736;28;20559;-75
2023/05/27 02:21:58;;;;;;;1999.90;999.90;;;8.50;99.90;;;;;;5079585;28;20493;-74
2023/05/27 02:24:25;;;;;;;1999.90;999.90;;;8.60;99.90;;;;;;5080711;28;20419;-74
2023/05/27 02:26:51;;;;;;;1999.90;999.90;;;8.50;99.90;;;;;;5080992;28;20462;-75
2023/05/27 02:29:19;;;;;;;1999.90;999.90;;;8.70;99.90;;;;;;5084759;28;20483;-74
2023/05/27 02:31:46;;;;;;;1999.90;999.90;;;8.40;99.90;;;;;;5082072;28;20423;-75
2023/05/27 02:34:12;;;;;;;1999.90;999.90;;;8.50;99.90;;;;;;5080264;28;20421;-73
2023/05/27 02:36:39;;;;;;;1999.90;999.90;;;8.30;99.90;;;;;;5073363;28;20509;-74
2023/05/27 02:39:05;;;;;;;1999.90;999.90;;;8.40;99.90;;;;;;5088218;28;21081;-74
2023/05/27 02:41:32;;;;;;;1999.90;999.90;;;8.50;99.90;;;;;;5087884;28;20446;-76
2023/05/27 02:43:59;;;;;;;1999.90;999.90;;;8.60;99.90;;;;;;5083451;28;20487;-75
2023/05/27 02:46:26;;;;;;;1999.90;999.90;;;8.50;99.90;;;;;;5080228;28;20789;-74
2023/05/27 02:48:53;;;;;;;1999.90;999.90;;;8.30;99.90;;;;;;5073593;28;20426;-75
2023/05/27 02:51:20;;;;;;;1999.90;999.90;;;8.10;99.90;;;;;;5088466;28;20430;-74
2023/05/27 02:53:46;;;;;;;1999.90;999.90;;;7.80;99.90;;;;;;5083292;28;20925;-74
2023/05/27 02:56:13;;;;;;;1999.90;999.90;;;7.60;99.90;;;;;;5080859;28;20514;-76
2023/05/27 02:58:40;;;;;;;1999.90;999.90;;;7.50;99.90;;;;;;5074545;28;20431;-75
2023/05/27 03:01:06;;;;;;;1999.90;999.90;;;7.70;99.90;;;;;;5088118;28;20437;-74
2023/05/27 03:03:34;;;;;;;1999.90;999.90;;;7.40;99.90;;;;;;5083986;28;20434;-75
2023/05/27 03:06:01;;;;;;;1999.90;999.90;;;7.40;99.90;;;;;;5087042;28;20436;-74
2023/05/27 03:08:28;;;;;;;1999.90;999.90;;;7.50;99.90;;;;;;5080578;28;20534;-74
2023/05/27 03:10:54;;;;;;;1999.90;999.90;;;7.60;99.90;;;;;;5073621;28;20422;-74
2023/05/27 03:13:21;;;;;;;1999.90;999.90;;;7.60;99.90;;;;;;5086008;28;20898;-73
2023/05/27 03:15:48;;;;;;;1999.90;999.90;;;7.50;99.90;;;;;;5083264;28;20427;-74
2023/05/27 03:18:15;;;;;;;1999.90;999.90;;;7.20;99.90;;;;;;5086162;28;20483;-76
2023/05/27 03:20:42;;;;;;;1999.90;999.90;;;7.20;99.90;;;;;;5078212;28;20463;-74
2023/05/27 03:23:09;;;;;;;1999.90;999.90;;;7.40;99.90;;;;;;5082613;28;20761;-74
2023/05/27 03:25:36;;;;;;;1999.90;999.90;;;7.60;99.90;;;;;;5085632;28;20775;-74
2023/05/27 03:28:02;;;;;;;1999.90;999.90;;;7.60;99.90;;;;;;5086400;28;20475;-74
2023/05/27 03:30:30;;;;;;;1999.90;999.90;;;7.80;99.90;;;;;;5077051;28;20423;-76
2023/05/27 03:32:56;;;;;;;1999.90;999.90;;;7.40;99.90;;;;;;5086210;28;20794;-74
2023/05/27 03:35:23;;;;;;;1999.90;999.90;;;7.40;99.90;;;;;;5092597;28;20430;-73
2023/05/27 03:37:51;;;;;;;1999.90;999.90;;;7.30;99.90;;;;;;5092369;28;20417;-74
2023/05/27 03:40:17;;;;;;;1999.90;999.90;;;7.20;99.90;;;;;;5105773;28;20531;-72
2023/05/27 03:42:44;;;;;;;1999.90;999.90;;;7.20;99.90;;;;;;5098395;28;20421;-75
2023/05/27 03:45:11;;;;;;;1999.90;999.90;;;7.10;99.90;;;;;;5105903;28;20456;-74
2023/05/27 03:47:38;;;;;;;1999.90;999.90;;;7.30;99.90;;;;;;5088123;28;20479;-75
2023/05/27 03:50:05;;;;;;;1999.90;999.90;;;7.30;99.90;;;;;;5087339;28;20459;-75
2023/05/27 03:52:32;;;;;;;1999.90;999.90;;;7.30;99.90;;;;;;5081109;28;20422;-74
2023/05/27 03:55:00;;;;;;;1999.90;999.90;;;7.10;99.90;;;;;;5079601;28;20451;-74
2023/05/27 03:57:27;;;;;;;1999.90;999.90;;;7.00;99.90;;;;;;5090865;28;20822;-75
2023/05/27 03:59:53;;;;;;;1999.90;999.90;;;7.00;99.90;;;;;;5084400;28;20422;-73
2023/05/27 04:02:20;;;;;;;1999.90;999.90;;;7.00;99.90;;;;;;5083143;28;20423;-71
2023/05/27 04:04:47;;;;;;;1999.90;999.90;;;7.20;99.90;;;;;;5077446;28;20427;-73
2023/05/27 04:07:13;;;;;;;1999.90;999.90;;;7.30;99.90;;;;;;5079085;28;20426;-75
2023/05/27 04:09:40;;;;;;;1999.90;999.90;;;7.70;99.90;;;;;;5087864;28;20425;-73
2023/05/27 04:12:09;;;;;;;1999.90;999.90;;;7.80;99.90;;;;;;5087827;28;20430;-74
2023/05/27 04:14:36;;;;;;;1999.90;999.90;;;8.00;99.90;;;;;;5080223;28;20421;-74
2023/05/27 04:17:02;;;;;;;1999.90;999.90;;;8.20;99.90;;;;;;5081929;28;20465;-74
2023/05/27 04:19:32;;;;;;;1999.90;999.90;;;8.50;99.90;;;;;;5088633;28;20425;-74
2023/05/27 04:21:59;;;;;;;1999.90;999.90;;;8.60;99.90;;;;;;5088779;28;20502;-74
2023/05/27 04:24:25;;;;;;;1999.90;999.90;;;8.70;99.90;;;;;;5091202;28;20449;-74
2023/05/27 04:26:52;;;;;;;1999.90;999.90;;;8.60;99.90;;;;;;5091484;28;20422;-76
2023/05/27 04:29:22;;;;;;;1999.90;999.90;;;8.60;99.90;;;;;;5085249;28;20478;-76
2023/05/27 04:31:49;;;;;;;1999.90;999.90;;;9.00;99.90;;;;;;5081756;28;20479;-74
2023/05/27 04:34:15;;;;;;;1999.90;999.90;;;9.30;99.90;;;;;;5091391;28;20426;-72
2023/05/27 04:36:42;;;;;;;1999.90;999.90;;;9.30;99.90;;;;;;5083951;28;20475;-74
2023/05/27 04:39:09;;;;;;;1999.90;999.90;;;9.80;99.90;;;;;;5085352;28;20426;-72
2023/05/27 04:41:35;;;;;;;1999.90;999.90;;;10.30;99.90;;;;;;5083362;28;20441;-74
2023/05/27 04:44:02;;;;;;;1999.90;999.90;;;10.80;99.90;;;;;;5083335;28;20988;-74
2023/05/27 04:46:30;;;;;;;1999.90;999.90;;;11.00;99.90;;;;;;5090119;28;20434;-74
2023/05/27 04:48:56;;;;;;;1999.90;999.90;;;11.40;99.90;;;;;;5086408;28;20485;-74
2023/05/27 04:51:23;;;;;;;1999.90;999.90;;;11.50;99.90;;;;;;5081123;28;20431;-74
2023/05/27 04:53:50;;;;;;;1999.90;999.90;;;11.40;99.90;;;;;;5088735;28;20437;-73
2023/05/27 04:56:17;;;;;;;1999.90;999.90;;;11.60;99.90;;;;;;5089937;28;20923;-73
2023/05/27 04:58:46;;;;;;;1999.90;999.90;;;11.80;99.90;;;;;;5089765;28;20471;-74
2023/05/27 05:01:17;;;;;;;1999.90;999.90;;;12.10;99.90;;;;;;5086823;28;20432;-72
2023/05/27 05:03:52;;;;;;;1999.90;999.90;;;12.30;99.90;;;;;;5085748;28;20911;-74
2023/05/27 05:06:22;;;;;;;1999.90;999.90;;;12.70;99.90;;;;;;5087734;28;20425;-73
2023/05/27 05:08:48;;;;;;;1999.90;999.90;;;13.00;99.90;;;;;;5081294;28;20528;-73
2023/05/27 05:11:15;;;;;;;1999.90;999.90;;;13.20;99.90;;;;;;5077058;28;20984;-74
2023/05/27 05:13:42;;;;;;;1999.90;999.90;;;13.40;99.90;;;;;;5088646;28;20433;-73
2023/05/27 05:16:08;;;;;;;1999.90;999.90;;;13.60;99.90;;;;;;5089528;28;20489;-73
2023/05/27 05:18:35;;;;;;;1999.90;999.90;;;13.70;99.90;;;;;;5081003;28;20502;-73
2023/05/27 05:21:03;;;;;;;1999.90;999.90;;;13.60;99.90;;;;;;5087999;28;20464;-74
2023/05/27 05:23:31;;;;;;;1999.90;999.90;;;14.00;99.90;;;;;;5082095;28;20431;-73
2023/05/27 05:26:05;;;;;;;1999.90;999.90;;;14.30;99.90;;;;;;5089517;28;20431;-72
2023/05/27 05:28:32;;;;;;;1999.90;999.90;;;14.50;99.90;;;;;;5088131;28;20876;-74
2023/05/27 05:30:59;;;;;;;1999.90;999.90;;;14.80;99.90;;;;;;5079406;28;20988;-74
2023/05/27 05:33:25;;;;;;;1999.90;999.90;;;14.70;99.90;;;;;;5082636;28;20461;-73
2023/05/27 05:35:52;;;;;;;1999.90;999.90;;;14.70;99.90;;;;;;5090030;28;20426;-73
2023/05/27 05:38:20;;;;;;;1999.90;999.90;;;15.00;99.90;;;;;;5089332;28;20422;-74
2023/05/27 05:40:49;;;;;;;1999.90;999.90;;;15.00;99.90;;;;;;5085037;28;20433;-72
2023/05/27 05:43:16;;;;;;;1999.90;999.90;;;14.90;99.90;;;;;;5083267;28;20431;-73
2023/05/27 05:45:42;;;;;;;1999.90;999.90;;;15.00;99.90;;;;;;5083619;28;20426;-74
2023/05/27 05:48:09;;;;;;;1999.90;999.90;;;14.90;99.90;;;;;;5075449;28;20936;-74
2023/05/27 05:50:36;;;;;;;1999.90;999.90;;;14.80;99.90;;;;;;5089096;28;20432;-73
2023/05/27 05:53:03;;;;;;;1999.90;999.90;;;14.70;99.90;;;;;;5087690;28;20553;-74
2023/05/27 05:55:30;;;;;;;1999.90;999.90;;;14.80;99.90;;;;;;5085039;28;20438;-75
2023/05/27 05:57:57;;;;;;;1999.90;999.90;;;14.70;99.90;;;;;;5078275;28;20423;-74
2023/05/27 06:00:24;;;;;;;1999.90;999.90;;;14.70;99.90;;;;;;5081221;28;20477;-73
2023/05/27 06:02:50;;;;;;;1999.90;999.90;;;14.90;99.90;;;;;;5085702;28;20446;-74
2023/05/27 06:05:17;;;;;;;1999.90;999.90;;;14.90;99.90;;;;;;5089718;28;20487;-73
2023/05/27 06:07:45;;;;;;;1999.90;999.90;;;15.00;99.90;;;;;;5080992;28;20992;-72
2023/05/27 06:10:12;;;;;;;1999.90;999.90;;;15.20;99.90;;;;;;5079192;28;20437;-73
2023/05/27 06:12:40;;;;;;;1999.90;999.90;;;15.30;99.90;;;;;;5085654;28;20438;-73
2023/05/27 06:15:08;;;;;;;1999.90;999.90;;;15.30;99.90;;;;;;5085677;28;20413;-73
2023/05/27 06:17:34;;;;;;;1999.90;999.90;;;15.30;99.90;;;;;;5077102;28;20953;-74
2023/05/27 06:20:01;;;;;;;1999.90;999.90;;;15.20;99.90;;;;;;5088258;28;20430;-74
2023/05/27 06:22:27;;;;;;;1999.90;999.90;;;15.00;99.90;;;;;;5088414;28;20456;-73
2023/05/27 06:24:54;;;;;;;1999.90;999.90;;;15.10;99.90;;;;;;5079909;28;20845;-73
2023/05/27 06:27:20;;;;;;;1999.90;999.90;;;15.10;99.90;;;;;;5086089;28;20426;-73
2023/05/27 06:29:48;;;;;;;1999.90;999.90;;;15.00;99.90;;;;;;5081692;28;20992;-73
2023/05/27 06:32:15;;;;;;;1999.90;999.90;;;15.20;99.90;;;;;;5098170;28;20431;-74
2023/05/27 06:34:41;;;;;;;1999.90;999.90;;;15.50;99.90;;;;;;5101712;28;20491;-74
2023/05/27 06:37:08;;;;;;;1999.90;999.90;;;15.60;99.90;;;;;;5083798;28;20436;-74
2023/05/27 06:39:35;;;;;;;1999.90;999.90;;;15.70;99.90;;;;;;5084908;28;21035;-74
2023/05/27 06:42:02;;;;;;;1999.90;999.90;;;15.80;99.90;;;;;;5078773;28;20411;-74
2023/05/27 06:44:28;;;;;;;1999.90;999.90;;;16.30;99.90;;;;;;5071062;28;20801;-75
2023/05/27 06:46:56;;;;;;;1999.90;999.90;;;16.30;99.90;;;;;;5075654;28;20438;-73
2023/05/27 06:49:23;;;;;;;1999.90;999.90;;;16.10;99.90;;;;;;5075578;28;20907;-72
2023/05/27 06:51:50;;;;;;;1999.90;999.90;;;16.40;99.90;;;;;;5070785;28;20956;-74
2023/05/27 06:54:16;;;;;;;1999.90;999.90;;;16.40;99.90;;;;;;5070446;28;20403;-74
2023/05/27 06:56:43;;;;;;;1999.90;999.90;;;16.60;99.90;;;;;;5070430;28;20422;-74
2023/05/27 06:59:09;;;;;;;1999.90;999.90;;;16.70;99.90;;;;;;5070448;28;20416;-74
2023/05/27 07:01:36;;;;;;;1999.90;999.90;;;17.00;99.90;;;;;;5080236;28;20976;-75
2023/05/27 07:04:04;;;;;;;1999.90;999.90;;;16.70;99.90;;;;;;5070064;28;20477;-73
2023/05/27 07:06:31;;;;;;;1999.90;999.90;;;16.70;99.90;;;;;;5070380;28;20445;-74
2023/05/27 07:08:57;;;;;;;1999.90;999.90;;;16.50;99.90;;;;;;5070510;28;20415;-74
2023/05/27 07:11:26;;;;;;;1999.90;999.90;;;16.70;99.90;;;;;;5072655;28;20459;-73
2023/05/27 07:13:52;;;;;;;1999.90;999.90;;;16.70;99.90;;;;;;5078580;28;20438;-74
2023/05/27 07:16:20;;;;;;;1999.90;999.90;;;17.10;99.90;;;;;;5088204;28;20436;-73
2023/05/27 07:18:46;;;;;;;1999.90;999.90;;;16.70;99.90;;;;;;5086527;28;20457;-74
2023/05/27 07:21:14;;;;;;;1999.90;999.90;;;16.90;99.90;;;;;;5083395;28;20919;-73
2023/05/27 07:23:41;;;;;;;1999.90;999.90;;;17.10;99.90;;;;;;5083563;28;20475;-72
2023/05/27 07:26:07;;;;;;;1999.90;999.90;;;16.80;99.90;;;;;;5086212;28;20990;-73
2023/05/27 07:28:34;;;;;;;1999.90;999.90;;;17.10;99.90;;;;;;5079861;28;20944;-73
2023/05/27 07:31:01;;;;;;;1999.90;999.90;;;16.80;99.90;;;;;;5086547;28;20477;-74
2023/05/27 07:33:27;;;;;;;1999.90;999.90;;;16.60;99.90;;;;;;5084510;28;20461;-73
2023/05/27 07:35:54;;;;;;;1999.90;999.90;;;16.70;99.90;;;;;;5085204;28;20521;-74
2023/05/27 07:38:22;;;;;;;1999.90;999.90;;;16.80;99.90;;;;;;5077643;28;20426;-73
2023/05/27 07:40:49;;;;;;;1999.90;999.90;;;16.80;99.90;;;;;;5085561;28;20430;-73
2023/05/27 07:43:16;;;;;;;1999.90;999.90;;;16.70;99.90;;;;;;5088241;28;20934;-73
2023/05/27 07:45:42;;;;;;;1999.90;999.90;;;16.90;99.90;;;;;;5086385;28;20453;-73
2023/05/27 07:48:09;;;;;;;1999.90;999.90;;;16.90;99.90;;;;;;5080710;28;20775;-73
2023/05/27 07:50:35;;;;;;;1999.90;999.90;;;16.90;99.90;;;;;;5078200;28;20453;-73
2023/05/27 07:53:02;;;;;;;1999.90;999.90;;;17.00;99.90;;;;;;5075488;28;20463;-73
2023/05/27 07:55:30;;;;;;;1999.90;999.90;;;17.20;99.90;;;;;;5077462;28;20463;-74
2023/05/27 07:57:56;;;;;;;1999.90;999.90;;;17.20;99.90;;;;;;5086593;28;20426;-74
2023/05/27 08:00:23;;;;;;;1999.90;999.90;;;17.20;99.90;;;;;;5085834;28;20486;-75
2023/05/27 08:02:50;;;;;;;1999.90;999.90;;;17.40;99.90;;;;;;5080923;28;20430;-73
2023/05/27 08:05:17;;;;;;;1999.90;999.90;;;17.70;99.90;;;;;;5075919;28;20434;-75
2023/05/27 08:07:43;;;;;;;1999.90;999.90;;;17.70;99.90;;;;;;5079074;28;20481;-73
2023/05/27 08:10:10;;;;;;;1999.90;999.90;;;17.70;99.90;;;;;;5087219;28;20453;-73
2023/05/27 08:12:38;;;;;;;1999.90;999.90;;;17.60;99.90;;;;;;5089886;28;20912;-74
2023/05/27 08:15:06;;;;;;;1999.90;999.90;;;17.60;99.90;;;;;;5097656;28;20459;-74
2023/05/27 08:17:33;;;;;;;1999.90;999.90;;;17.70;99.90;;;;;;5101110;28;20440;-73
2023/05/27 08:20:00;;;;;;;1999.90;999.90;;;18.00;99.90;;;;;;5107721;28;20436;-74
2023/05/27 08:22:26;;;;;;;1999.90;999.90;;;17.60;99.90;;;;;;5094485;28;20896;-73
2023/05/27 08:24:54;;;;;;;1999.90;999.90;;;17.60;99.90;;;;;;5094654;28;20441;-74
2023/05/27 08:27:21;;;;;;;1999.90;999.90;;;18.10;99.90;;;;;;5093459;28;20406;-73
2023/05/27 08:29:49;;;;;;;1999.90;999.90;;;17.70;99.90;;;;;;5093543;28;20839;-73
2023/05/27 08:32:15;;;;;;;1999.90;999.90;;;17.60;99.90;;;;;;5090242;28;20481;-71
2023/05/27 08:34:42;;;;;;;1999.90;999.90;;;18.20;99.90;;;;;;5075525;28;20485;-72
2023/05/27 08:37:08;;;;;;;1999.90;999.90;;;18.20;99.90;;;;;;5087515;28;20454;-70
2023/05/27 08:39:35;;;;;;;1999.90;999.90;;;18.40;99.90;;;;;;5091841;28;20526;-71
2023/05/27 08:42:02;;;;;;;1999.90;999.90;;;18.70;99.90;;;;;;5087364;28;20483;-70
2023/05/27 08:44:30;;;;;;;1999.90;999.90;;;18.40;99.90;;;;;;5090865;28;20886;-71
2023/05/27 08:46:58;;;;;;;1999.90;999.90;;;18.50;99.90;;;;;;5083007;28;20433;-72
2023/05/27 08:49:25;;;;;;;1999.90;999.90;;;18.70;99.90;;;;;;5088806;28;20430;-72
2023/05/27 08:51:52;;;;;;;1999.90;999.90;;;18.80;99.90;;;;;;5084953;28;20426;-71
2023/05/27 08:54:20;;;;;;;1999.90;999.90;;;18.60;99.90;;;;;;5084963;28;20911;-72
2023/05/27 08:56:49;;;;;;;1999.90;999.90;;;18.60;99.90;;;;;;5089786;28;20429;-71
2023/05/27 08:59:16;;;;;;;1999.90;999.90;;;18.50;99.90;;;;;;5075451;28;20455;-71
2023/05/27 09:01:43;;;;;;;1999.90;999.90;;;18.60;99.90;;;;;;5082369;28;20429;-74
2023/05/27 09:04:11;;;;;;;1999.90;999.90;;;18.60;99.90;;;;;;5083508;28;20427;-74
2023/05/27 09:06:38;;;;;;;1999.90;999.90;;;18.30;99.90;;;;;;5088229;28;20424;-72
2023/05/27 09:09:07;;;;;;;1999.90;999.90;;;18.10;99.90;;;;;;5087153;28;20417;-73
2023/05/27 09:11:36;;;;;;;1999.90;999.90;;;18.10;99.90;;;;;;5082076;28;20426;-73
2023/05/27 09:14:02;;;;;;;1999.90;999.90;;;18.10;99.90;;;;;;5076918;28;20451;-74
2023/05/27 09:16:29;;;;;;;1999.90;999.90;;;18.40;99.90;;;;;;5082365;28;20816;-71
2023/05/27 09:18:55;;;;;;;1999.90;999.90;;;18.50;99.90;;;;;;5092966;28;20463;-71
2023/05/27 09:21:25;;;;;;;1999.90;999.90;;;18.60;99.90;;;;;;5092035;28;20428;-71
2023/05/27 09:23:56;;;;;;;1999.90;999.90;;;18.60;99.90;;;;;;5090582;28;20521;-71
2023/05/27 09:26:23;;;;;;;1999.90;999.90;;;18.80;99.90;;;;;;5080155;28;20419;-72
2023/05/27 09:28:50;;;;;;;1999.90;999.90;;;19.20;99.90;;;;;;5071899;28;20423;-71
2023/05/27 09:31:16;;;;;;;1999.90;999.90;;;19.30;99.20;;;;;;5071658;28;20460;-70
2023/05/27 09:33:43;;;;;;;1999.90;999.90;;;19.20;99.20;;;;;;5071950;28;20415;-72
2023/05/27 09:36:09;;;;;;;1999.90;999.90;;;19.10;99.70;;;;;;5071762;28;20523;-73
2023/05/27 09:38:37;;;;;;;1999.90;999.90;;;18.70;99.90;;;;;;5079628;28;20428;-74
2023/05/27 09:41:04;;;;;;;1999.90;999.90;;;18.60;99.90;;;;;;5090962;28;20410;-71
2023/05/27 09:43:31;;;;;;;1999.90;999.90;;;18.70;99.90;;;;;;5091708;28;20410;-71
2023/05/27 09:46:01;;;;;;;1999.90;999.90;;;18.90;99.90;;;;;;5092144;28;20414;-71
2023/05/27 09:48:29;;;;;;;1999.90;999.90;;;19.00;99.40;;;;;;5091781;28;20440;-71
2023/05/27 09:50:57;;;;;;;1999.90;999.90;;;18.90;98.40;;;;;;5090828;28;20780;-71
2023/05/27 09:53:25;;;;;;;1999.90;999.90;;;19.00;99.40;;;;;;5085807;28;20929;-71
2023/05/27 09:55:53;;;;;;;1999.90;999.90;;;19.20;99.10;;;;;;5079502;28;20978;-72
2023/05/27 09:58:21;;;;;;;1999.90;999.90;;;19.40;98.90;;;;;;5078430;28;20415;-72
2023/05/27 10:00:49;;;;;;;1999.90;999.90;;;19.60;97.60;;;;;;5071552;28;20416;-72
2023/05/27 10:03:17;;;;;;;1999.90;999.90;;;19.60;97.50;;;;;;5072412;28;20465;-72
2023/05/27 10:05:45;;;;;;;1999.90;999.90;;;19.50;98.10;;;;;;5083447;28;20500;-72
2023/05/27 10:08:12;;;;;;;1999.90;999.90;;;19.40;98.20;;;;;;5070716;28;20987;-71
2023/05/27 10:10:39;;;;;;;1999.90;999.90;;;19.40;98.60;;;;;;5071644;28;20411;-72
2023/05/27 10:13:08;;;;;;;1999.90;999.90;;;19.40;97.80;;;;;;5073326;28;20950;-73
2023/05/27 10:15:35;;;;;;;1999.90;999.90;;;19.30;98.20;;;;;;5079423;28;20429;-74
2023/05/27 10:18:05;;;;;;;1999.90;999.90;;;19.50;98.70;;;;;;5081592;28;20422;-73
2023/05/27 10:20:37;;;;;;;1999.90;999.90;;;19.70;98.10;;;;;;5081906;28;21413;-73
2023/05/27 10:23:11;;;;;;;1999.90;999.90;;;19.50;97.80;;;;;;5091163;28;20417;-72
2023/05/27 10:25:39;;;;;;;1999.90;999.90;;;19.40;97.60;;;;;;5091496;28;20422;-73
2023/05/27 10:28:07;;;;;;;1999.90;999.90;;;19.40;97.60;;;;;;5090992;28;20418;-72
2023/05/27 10:30:44;;;;;;;1999.90;999.90;;;19.50;97.60;;;;;;5090528;28;20531;-73
2023/05/27 10:33:11;;;;;;;1999.90;999.90;;;19.60;96.70;;;;;;5080462;28;20436;-74
2023/05/27 10:35:42;;;;;;;1999.90;999.90;;;19.80;97.00;;;;;;5133214;22;20437;-73
2023/05/27 10:38:17;;;;;;;1999.90;999.90;;;19.70;96.90;;;;;;5088115;28;20479;-72
2023/05/27 10:40:46;;;;;;;1999.90;999.90;;;19.60;97.00;;;;;;5090209;28;20420;-71
2023/05/27 10:43:20;;;;;;;1999.90;999.90;;;19.40;98.30;;;;;;5090732;28;20446;-71
2023/05/27 10:45:47;;;;;;;1999.90;999.90;;;19.40;96.50;;;;;;5090698;28;20466;-71
2023/05/27 10:48:18;;;;;;;1999.90;999.90;;;19.50;96.50;;;;;;5090547;28;20497;-71
2023/05/27 10:50:51;;;;;;;1999.90;999.90;;;19.50;95.70;;;;;;5089465;28;20432;-70
2023/05/27 10:53:19;;;;;;;1999.90;999.90;;;19.50;97.40;;;;;;5082790;28;20405;-72
2023/05/27 10:55:47;;;;;;;1999.90;999.90;;;19.60;96.50;;;;;;5106506;28;20420;-71
2023/05/27 10:58:15;;;;;;;1999.90;999.90;;;19.90;96.10;;;;;;5100398;28;20854;-71
2023/05/27 11:00:45;;;;;;;1999.90;999.90;;;19.90;96.00;;;;;;5088893;28;20494;-72
2023/05/27 11:03:17;;;;;;;1999.90;999.90;;;19.90;96.10;;;;;;5085736;28;20438;-72
2023/05/27 11:05:44;;;;;;;1999.90;999.90;;;19.90;96.30;;;;;;5087944;28;20429;-72
2023/05/27 11:08:12;;;;;;;1999.90;999.90;;;20.10;97.20;;;;;;5086843;28;20439;-72
2023/05/27 11:10:41;;;;;;;1999.90;999.90;;;20.10;97.70;;;;;;5086614;28;20842;-71
2023/05/27 11:13:07;;;;;;;1999.90;999.90;;;20.30;97.60;;;;;;5086704;28;20460;-69
2023/05/27 11:15:34;;;;;;;1999.90;999.90;;;20.20;96.20;;;;;;5074545;28;20437;-71
2023/05/27 11:18:03;;;;;;;1999.90;999.90;;;20.40;96.30;;;;;;5086534;28;20414;-72
2023/05/27 11:20:35;;;;;;;1999.90;999.90;;;20.30;97.00;;;;;;5089893;28;20900;-70
2023/05/27 11:23:02;;;;;;;1999.90;999.90;;;20.20;97.20;;;;;;5090430;28;20467;-72
2023/05/27 11:25:29;;;;;;;1999.90;999.90;;;20.10;97.60;;;;;;5088893;28;20456;-73
2023/05/27 11:27:55;;;;;;;1999.90;999.90;;;20.00;97.50;;;;;;5088309;28;20805;-72
2023/05/27 11:30:27;;;;;;;1999.90;999.90;;;20.20;97.70;;;;;;5089797;28;20467;-72
2023/05/27 11:32:53;;;;;;;1999.90;999.90;;;20.50;97.80;;;;;;5090462;28;20421;-69
2023/05/27 11:35:21;;;;;;;1999.90;999.90;;;20.80;97.70;;;;;;5089898;28;20410;-69
2023/05/27 11:37:50;;;;;;;1999.90;999.90;;;21.00;95.50;;;;;;5088803;28;20540;-69
2023/05/27 11:40:17;;;;;;;1999.90;999.90;;;21.20;95.00;;;;;;5081437;28;20405;-74
2023/05/27 11:42:45;;;;;;;1999.90;999.90;;;21.00;93.50;;;;;;5090304;28;20410;-71
2023/05/27 11:45:16;;;;;;;1999.90;999.90;;;20.70;95.60;;;;;;5089880;28;20409;-72
2023/05/27 11:47:43;;;;;;;1999.90;999.90;;;20.70;95.60;;;;;;5091337;28;20437;-71
2023/05/27 11:50:10;;;;;;;1999.90;999.90;;;20.50;95.10;;;;;;5093323;28;20475;-73
2023/05/27 11:52:51;;;;;;;1999.90;999.90;;;20.50;94.90;;;;;;5094290;28;20409;-72
2023/05/27 11:55:17;;;;;;;1999.90;999.90;;;20.70;95.00;;;;;;5094000;28;20414;-72
2023/05/27 11:57:44;;;;;;;1999.90;999.90;;;20.90;93.70;;;;;;5092231;28;20902;-70
2023/05/27 12:00:12;;;;;;;1999.90;999.90;;;21.10;93.30;;;;;;5093637;28;20775;-71
2023/05/27 12:02:38;;;;;;;1999.90;999.90;;;21.10;94.60;;;;;;5094011;28;20413;-71
2023/05/27 12:05:07;;;;;;;1999.90;999.90;;;21.10;93.70;;;;;;5093690;28;20539;-68